Aeroporto :
LOGIN :

Iscrizione | Disclaimer

   EN    FR    IT 

 










Sommario :    VFR   VFR Marginale   IFR   IFR Intensivo   IFR Molto Intensivo
Visibilità : 
Base nubi : 
>= 8 km
>= 3000ft
5 / 8 km
1000 / 3000 ft
1500m / 5 km
500 / 1000 ft
800 / 1500m
200 / 500 ft
< 800m
< 200 ft
Simboli :   Temporali  Nebbia  Neve Forte  Precipitazioni Forti  Vento > 20 kt
SIGMETs :   Varie  Temporali  Ghiacco  Turbolenza  Onda orograficha  Ceneri Vulcaniche






- Altitudine del aeroporto : 158 ft
- Codice IATA : QAR


EHDL - Deelen Airbase

ULTIMO METAR :
  • 180625Z AUTO 23014KT 180V280 9999 FEW017 05/03 Q1018 BLU

METARs OBSOLETI :
  • 180555Z AUTO 23014KT 180V270 9999 FEW030 SCT039 BKN045 05/03 Q1018 BLU
  • 180525Z AUTO 24012KT 180V280 9999 FEW024 SCT029 BKN034 06/03 Q1018 BLU
  • 180455Z AUTO 24013KT 190V280 9999 SCT030 SCT037 06/03 Q1017 BLU
  • 180425Z AUTO 24013KT 190V300 9999 FEW028 06/03 Q1017 BLU
  • 180355Z AUTO 24014KT 190V280 9999 FEW017 06/04 Q1017 BLU
  • 180325Z AUTO 24011KT 190V280 9999 SCT014 BKN017 BKN024 06/04 Q1016 GRN

Previsioni scadute.



MetMap, La meteo Aeronautica in un colpo d'occhio ! - Copyright ORBIFLY Dicembre 2007 - Disclaimer

ORBIFLY MET'MAP TEAM :

Programmazione e sviluppo : Alexandra Zaïnal
Concezione : Baudouin d'Aumeries
Aiuto per la programmazione : Marc-Olivier Méhu
Supporto tecnico e logistico : Manuel Goepfert
Aiuto per la traduzione : Arnaldo La Scala

Contatto : metmap@orbifly.com




FONTI E CREDITI :

   NOAA